sensor_id;sensor_type;location;lat;lon;timestamp;pressure;altitude;pressure_sealevel;temperature;humidity
48035;BME280;33812;46.480;6.834;2023-07-29T00:00:44;93399.97;;;24.12;46.42
48035;BME280;33812;46.480;6.834;2023-07-29T00:04:45;93398.44;;;24.11;45.89
48035;BME280;33812;46.480;6.834;2023-07-29T00:08:49;93434.06;;;24.13;46.35
48035;BME280;33812;46.480;6.834;2023-07-29T00:12:50;93473.41;;;24.11;45.88
48035;BME280;33812;46.480;6.834;2023-07-29T00:16:53;93492.84;;;24.11;45.50
48035;BME280;33812;46.480;6.834;2023-07-29T00:20:54;93506.72;;;24.11;45.51
48035;BME280;33812;46.480;6.834;2023-07-29T00:24:57;93461.06;;;24.12;46.07
48035;BME280;33812;46.480;6.834;2023-07-29T00:28:59;93461.06;;;24.12;46.26
48035;BME280;33812;46.480;6.834;2023-07-29T00:33:01;93495.16;;;24.13;45.95
48035;BME280;33812;46.480;6.834;2023-07-29T00:37:03;93489.59;;;24.13;46.23
48035;BME280;33812;46.480;6.834;2023-07-29T00:41:08;93476.19;;;24.11;45.82
48035;BME280;33812;46.480;6.834;2023-07-29T00:45:13;93477.72;;;24.12;46.21
48035;BME280;33812;46.480;6.834;2023-07-29T00:49:15;93475.72;;;24.13;45.79
48035;BME280;33812;46.480;6.834;2023-07-29T00:53:17;93481.75;;;24.11;46.24
48035;BME280;33812;46.480;6.834;2023-07-29T00:57:20;93480.50;;;24.12;46.33
48035;BME280;33812;46.480;6.834;2023-07-29T01:01:24;93480.50;;;24.12;46.29
48035;BME280;33812;46.480;6.834;2023-07-29T01:05:30;93477.72;;;24.12;46.01
48035;BME280;33812;46.480;6.834;2023-07-29T01:09:39;93476.94;;;24.12;45.85
48035;BME280;33812;46.480;6.834;2023-07-29T01:13:48;93462.59;;;24.13;46.38
48035;BME280;33812;46.480;6.834;2023-07-29T01:17:55;93463.06;;;24.12;45.93
48035;BME280;33812;46.480;6.834;2023-07-29T01:21:58;93469.38;;;24.12;46.32
48035;BME280;33812;46.480;6.834;2023-07-29T01:26:02;93471.38;;;24.12;46.28
48035;BME280;33812;46.480;6.834;2023-07-29T01:30:05;93466.59;;;24.12;46.04
48035;BME280;33812;46.480;6.834;2023-07-29T01:34:13;93461.84;;;24.13;46.41
48035;BME280;33812;46.480;6.834;2023-07-29T01:38:18;93451.19;;;24.11;46.02
48035;BME280;33812;46.480;6.834;2023-07-29T01:42:22;93455.50;;;24.12;46.10
48035;BME280;33812;46.480;6.834;2023-07-29T01:46:25;93461.06;;;24.12;46.44
48035;BME280;33812;46.480;6.834;2023-07-29T01:50:27;93449.19;;;24.12;46.14
48035;BME280;33812;46.480;6.834;2023-07-29T01:54:28;93456.28;;;24.13;46.06
48035;BME280;33812;46.480;6.834;2023-07-29T01:58:31;93454.72;;;24.12;45.59
48035;BME280;33812;46.480;6.834;2023-07-29T02:02:33;93454.72;;;24.12;45.63
48035;BME280;33812;46.480;6.834;2023-07-29T02:06:35;93445.66;;;24.11;45.44
48035;BME280;33812;46.480;6.834;2023-07-29T02:10:37;93449.19;;;24.12;45.61
48035;BME280;33812;46.480;6.834;2023-07-29T02:14:40;93454.72;;;24.12;45.78
48035;BME280;33812;46.480;6.834;2023-07-29T02:18:42;93472.63;;;24.11;45.58
48035;BME280;33812;46.480;6.834;2023-07-29T02:22:43;93457.50;;;24.12;45.61
48035;BME280;33812;46.480;6.834;2023-07-29T02:26:45;93458.75;;;24.11;45.72
48035;BME280;33812;46.480;6.834;2023-07-29T02:31:08;93465.84;;;24.12;45.71
48035;BME280;33812;46.480;6.834;2023-07-29T02:35:11;93465.84;;;24.12;45.80
48035;BME280;33812;46.480;6.834;2023-07-29T02:39:13;93473.41;;;24.11;46.19
48035;BME280;33812;46.480;6.834;2023-07-29T02:43:15;93478.97;;;24.11;46.18
48035;BME280;33812;46.480;6.834;2023-07-29T02:47:18;93492.84;;;24.11;46.24
48035;BME280;33812;46.480;6.834;2023-07-29T02:51:20;93488.03;;;24.12;45.79
48035;BME280;33812;46.480;6.834;2023-07-29T02:55:21;93483.28;;;24.12;45.97
48035;BME280;33812;46.480;6.834;2023-07-29T02:59:23;93474.16;;;24.12;45.66
48035;BME280;33812;46.480;6.834;2023-07-29T03:03:26;93478.19;;;24.11;45.42
48035;BME280;33812;46.480;6.834;2023-07-29T03:07:28;93492.84;;;24.11;45.53
48035;BME280;33812;46.480;6.834;2023-07-29T03:11:30;93481.75;;;24.11;45.72
48035;BME280;33812;46.480;6.834;2023-07-29T03:15:32;93472.63;;;24.11;46.05
48035;BME280;33812;46.480;6.834;2023-07-29T03:19:35;93473.41;;;24.11;45.90
48035;BME280;33812;46.480;6.834;2023-07-29T03:23:37;93465.09;;;24.11;45.90
48035;BME280;33812;46.480;6.834;2023-07-29T03:27:39;93465.09;;;24.11;45.76
48035;BME280;33812;46.480;6.834;2023-07-29T03:31:41;93462.75;;;24.10;45.65
48035;BME280;33812;46.480;6.834;2023-07-29T03:35:44;93457.97;;;24.10;45.58
48035;BME280;33812;46.480;6.834;2023-07-29T03:39:46;93463.53;;;24.10;45.53
48035;BME280;33812;46.480;6.834;2023-07-29T03:43:48;93462.31;;;24.11;45.73
48035;BME280;33812;46.480;6.834;2023-07-29T03:47:49;93465.09;;;24.11;45.59
48035;BME280;33812;46.480;6.834;2023-07-29T03:51:52;93467.06;;;24.11;45.80
48035;BME280;33812;46.480;6.834;2023-07-29T03:55:54;93467.84;;;24.11;45.75
48035;BME280;33812;46.480;6.834;2023-07-29T03:59:56;93472.63;;;24.11;46.11
48035;BME280;33812;46.480;6.834;2023-07-29T04:03:58;93470.63;;;24.11;46.11
48035;BME280;33812;46.480;6.834;2023-07-29T04:08:02;93475.41;;;24.11;45.67
48035;BME280;33812;46.480;6.834;2023-07-29T04:12:04;93475.41;;;24.11;46.04
48035;BME280;33812;46.480;6.834;2023-07-29T04:16:06;93478.97;;;24.11;45.79
48035;BME280;33812;46.480;6.834;2023-07-29T04:20:10;93476.19;;;24.11;45.88
48035;BME280;33812;46.480;6.834;2023-07-29T04:24:13;93476.19;;;24.11;46.15
48035;BME280;33812;46.480;6.834;2023-07-29T04:28:15;93481.75;;;24.11;45.72
48035;BME280;33812;46.480;6.834;2023-07-29T04:32:16;93492.06;;;24.11;46.15
48035;BME280;33812;46.480;6.834;2023-07-29T04:36:18;93505.94;;;24.11;46.11
48035;BME280;33812;46.480;6.834;2023-07-29T04:40:21;93506.72;;;24.11;45.74
48035;BME280;33812;46.480;6.834;2023-07-29T04:44:24;93514.28;;;24.11;45.83
48035;BME280;33812;46.480;6.834;2023-07-29T04:48:25;93507.16;;;24.10;45.82
48035;BME280;33812;46.480;6.834;2023-07-29T04:52:27;93520.59;;;24.11;46.09
48035;BME280;33812;46.480;6.834;2023-07-29T04:56:30;93521.81;;;24.10;45.82
48035;BME280;33812;46.480;6.834;2023-07-29T05:00:32;93513.50;;;24.10;46.24
48035;BME280;33812;46.480;6.834;2023-07-29T05:04:34;93519.03;;;24.10;45.79
48035;BME280;33812;46.480;6.834;2023-07-29T05:08:36;93511.50;;;24.11;45.88
48035;BME280;33812;46.480;6.834;2023-07-29T05:12:39;93519.03;;;24.10;45.95
48035;BME280;33812;46.480;6.834;2023-07-29T05:16:41;93512.28;;;24.11;45.82
48035;BME280;33812;46.480;6.834;2023-07-29T05:20:43;93512.28;;;24.11;45.81
48035;BME280;33812;46.480;6.834;2023-07-29T05:24:45;93513.50;;;24.10;45.78
48035;BME280;33812;46.480;6.834;2023-07-29T05:28:48;93510.72;;;24.10;46.21
48035;BME280;33812;46.480;6.834;2023-07-29T05:32:50;93510.72;;;24.10;45.97
48035;BME280;33812;46.480;6.834;2023-07-29T05:36:51;93513.50;;;24.10;46.12
48035;BME280;33812;46.480;6.834;2023-07-29T05:40:53;93507.16;;;24.10;45.83
48035;BME280;33812;46.480;6.834;2023-07-29T05:44:56;93512.72;;;24.10;46.29
48035;BME280;33812;46.480;6.834;2023-07-29T05:48:58;93515.06;;;24.11;45.93
48035;BME280;33812;46.480;6.834;2023-07-29T05:53:00;93505.16;;;24.10;45.94
48035;BME280;33812;46.480;6.834;2023-07-29T05:57:01;93505.16;;;24.10;46.30
48035;BME280;33812;46.480;6.834;2023-07-29T06:01:04;93513.50;;;24.10;46.18
48035;BME280;33812;46.480;6.834;2023-07-29T06:05:07;93513.50;;;24.10;45.81
48035;BME280;33812;46.480;6.834;2023-07-29T06:09:08;93514.28;;;24.11;45.87
48035;BME280;33812;46.480;6.834;2023-07-29T06:13:10;93514.28;;;24.11;46.29
48035;BME280;33812;46.480;6.834;2023-07-29T06:17:13;93513.50;;;24.10;46.23
48035;BME280;33812;46.480;6.834;2023-07-29T06:21:15;93507.16;;;24.10;45.88
48035;BME280;33812;46.480;6.834;2023-07-29T06:25:17;93519.03;;;24.10;46.33
48035;BME280;33812;46.480;6.834;2023-07-29T06:29:19;93527.38;;;24.10;46.37
48035;BME280;33812;46.480;6.834;2023-07-29T06:33:22;93530.16;;;24.10;46.25
48035;BME280;33812;46.480;6.834;2023-07-29T06:37:23;93518.28;;;24.10;46.20
48035;BME280;33812;46.480;6.834;2023-07-29T06:41:25;93530.16;;;24.10;46.29
48035;BME280;33812;46.480;6.834;2023-07-29T06:45:27;93527.38;;;24.10;46.04
48035;BME280;33812;46.480;6.834;2023-07-29T06:49:30;93533.72;;;24.11;46.01
48035;BME280;33812;46.480;6.834;2023-07-29T06:53:32;93535.69;;;24.10;46.36
48035;BME280;33812;46.480;6.834;2023-07-29T06:57:34;93545.59;;;24.11;46.55
48035;BME280;33812;46.480;6.834;2023-07-29T07:01:35;93531.72;;;24.11;46.40
48035;BME280;33812;46.480;6.834;2023-07-29T07:05:38;93531.72;;;24.11;46.03
48035;BME280;33812;46.480;6.834;2023-07-29T07:09:40;93519.81;;;24.11;46.18
48035;BME280;33812;46.480;6.834;2023-07-29T07:13:42;93531.72;;;24.11;46.57
48035;BME280;33812;46.480;6.834;2023-07-29T07:17:44;93534.50;;;24.11;46.40
48035;BME280;33812;46.480;6.834;2023-07-29T07:21:47;93524.91;;;24.12;46.04
48035;BME280;33812;46.480;6.834;2023-07-29T07:25:49;93526.16;;;24.11;46.29
48035;BME280;33812;46.480;6.834;2023-07-29T07:29:50;93524.59;;;24.10;46.08
48035;BME280;33812;46.480;6.834;2023-07-29T07:33:52;93531.72;;;24.11;46.21
48035;BME280;33812;46.480;6.834;2023-07-29T07:37:55;93523.38;;;24.11;46.11
48035;BME280;33812;46.480;6.834;2023-07-29T07:41:57;93509.50;;;24.11;46.11
48035;BME280;33812;46.480;6.834;2023-07-29T07:45:59;93498.41;;;24.11;46.17
48035;BME280;33812;46.480;6.834;2023-07-29T07:50:01;93516.59;;;24.12;46.57
48035;BME280;33812;46.480;6.834;2023-07-29T07:54:04;93515.06;;;24.11;46.17
48035;BME280;33812;46.480;6.834;2023-07-29T07:58:06;93497.16;;;24.12;46.18
48035;BME280;33812;46.480;6.834;2023-07-29T08:02:08;93498.41;;;24.11;46.57
48035;BME280;33812;46.480;6.834;2023-07-29T08:06:09;93515.06;;;24.11;46.63
48035;BME280;33812;46.480;6.834;2023-07-29T08:10:12;93495.63;;;24.11;46.53
48035;BME280;33812;46.480;6.834;2023-07-29T08:14:14;93519.34;;;24.12;46.53
48035;BME280;33812;46.480;6.834;2023-07-29T08:18:16;93527.69;;;24.12;46.71
48035;BME280;33812;46.480;6.834;2023-07-29T08:22:18;93529.22;;;24.13;46.34
48035;BME280;33812;46.480;6.834;2023-07-29T08:26:22;93537.53;;;24.13;46.53
48035;BME280;33812;46.480;6.834;2023-07-29T08:30:23;93548.66;;;24.13;46.30
48035;BME280;33812;46.480;6.834;2023-07-29T08:34:25;93550.69;;;24.13;46.70
48035;BME280;33812;46.480;6.834;2023-07-29T08:38:27;93540.03;;;24.11;46.59
48035;BME280;33812;46.480;6.834;2023-07-29T08:42:31;93545.88;;;24.13;46.39
48035;BME280;33812;46.480;6.834;2023-07-29T08:46:33;93543.09;;;24.13;46.67
48035;BME280;33812;46.480;6.834;2023-07-29T08:50:36;93551.44;;;24.13;46.36
48035;BME280;33812;46.480;6.834;2023-07-29T08:54:38;93539.56;;;24.13;46.66
48035;BME280;33812;46.480;6.834;2023-07-29T08:58:41;93551.44;;;24.13;46.48
48035;BME280;33812;46.480;6.834;2023-07-29T09:02:44;93552.22;;;24.14;46.44
48035;BME280;33812;46.480;6.834;2023-07-29T09:06:47;93546.66;;;24.14;46.37
48035;BME280;33812;46.480;6.834;2023-07-29T09:10:50;93536.34;;;24.14;46.74
48035;BME280;33812;46.480;6.834;2023-07-29T09:14:53;93526.75;;;24.15;46.52
48035;BME280;33812;46.480;6.834;2023-07-29T09:18:54;93542.63;;;24.15;46.28
48035;BME280;33812;46.480;6.834;2023-07-29T09:22:58;93543.88;;;24.14;46.71
48035;BME280;33812;46.480;6.834;2023-07-29T09:27:00;93547.44;;;24.14;46.43
48035;BME280;33812;46.480;6.834;2023-07-29T09:31:04;93546.66;;;24.14;46.41
48035;BME280;33812;46.480;6.834;2023-07-29T09:35:10;93558.53;;;24.14;46.74
48035;BME280;33812;46.480;6.834;2023-07-29T09:39:12;93575.19;;;24.14;46.56
48035;BME280;33812;46.480;6.834;2023-07-29T09:43:16;93575.94;;;24.15;46.79
48035;BME280;33812;46.480;6.834;2023-07-29T09:47:24;93578.72;;;24.15;46.87
48035;BME280;33812;46.480;6.834;2023-07-29T09:51:26;93553.75;;;24.15;46.36
48035;BME280;33812;46.480;6.834;2023-07-29T09:55:27;93558.06;;;24.16;46.72
48035;BME280;33812;46.480;6.834;2023-07-29T09:59:33;93565.63;;;24.15;46.62
48035;BME280;33812;46.480;6.834;2023-07-29T10:03:37;93580.75;;;24.14;46.43
48035;BME280;33812;46.480;6.834;2023-07-29T10:07:40;93573.16;;;24.15;46.38
48035;BME280;33812;46.480;6.834;2023-07-29T10:11:42;93564.84;;;24.15;46.73
48035;BME280;33812;46.480;6.834;2023-07-29T10:15:45;93562.84;;;24.15;46.91
48035;BME280;33812;46.480;6.834;2023-07-29T10:19:49;93565.63;;;24.15;46.83
48035;BME280;33812;46.480;6.834;2023-07-29T10:23:53;93572.72;;;24.17;46.99
48035;BME280;33812;46.480;6.834;2023-07-29T10:28:07;93583.84;;;24.17;46.55
48035;BME280;33812;46.480;6.834;2023-07-29T10:32:11;93591.41;;;24.16;46.91
48035;BME280;33812;46.480;6.834;2023-07-29T10:36:15;93588.63;;;24.16;46.46
48035;BME280;33812;46.480;6.834;2023-07-29T10:40:17;93594.94;;;24.17;46.88
48035;BME280;33812;46.480;6.834;2023-07-29T10:44:47;93586.63;;;24.17;46.84
48035;BME280;33812;46.480;6.834;2023-07-29T10:48:53;93614.38;;;24.17;46.73
48035;BME280;33812;46.480;6.834;2023-07-29T10:52:57;93615.13;;;24.17;46.92
48035;BME280;33812;46.480;6.834;2023-07-29T10:56:58;93617.91;;;24.17;46.82
48035;BME280;33812;46.480;6.834;2023-07-29T11:01:00;93604.84;;;24.18;46.96
48035;BME280;33812;46.480;6.834;2023-07-29T11:05:05;93594.16;;;24.16;46.88
48035;BME280;33812;46.480;6.834;2023-07-29T11:13:40;93598.47;;;24.17;46.57
48035;BME280;33812;46.480;6.834;2023-07-29T11:17:43;93604.03;;;24.17;46.82
48035;BME280;33812;46.480;6.834;2023-07-29T11:21:47;93601.25;;;24.17;47.00
48035;BME280;33812;46.480;6.834;2023-07-29T11:25:49;93602.06;;;24.18;46.64
48035;BME280;33812;46.480;6.834;2023-07-29T11:29:58;93602.06;;;24.18;46.50
48035;BME280;33812;46.480;6.834;2023-07-29T11:34:00;93594.50;;;24.18;47.03
48035;BME280;33812;46.480;6.834;2023-07-29T11:38:02;93591.72;;;24.18;46.88
48035;BME280;33812;46.480;6.834;2023-07-29T11:42:04;93590.16;;;24.17;47.01
48035;BME280;33812;46.480;6.834;2023-07-29T11:46:07;93606.38;;;24.19;46.61
48035;BME280;33812;46.480;6.834;2023-07-29T11:50:10;93614.69;;;24.19;46.64
48035;BME280;33812;46.480;6.834;2023-07-29T11:54:15;93610.69;;;24.20;47.03
48035;BME280;33812;46.480;6.834;2023-07-29T11:58:16;93623.03;;;24.19;46.98
48035;BME280;33812;46.480;6.834;2023-07-29T12:02:20;93633.66;;;24.20;46.80
48035;BME280;33812;46.480;6.834;2023-07-29T12:06:23;93630.88;;;24.20;46.60
48035;BME280;33812;46.480;6.834;2023-07-29T12:10:25;93623.81;;;24.19;47.07
48035;BME280;33812;46.480;6.834;2023-07-29T12:14:28;93632.13;;;24.19;46.60
48035;BME280;33812;46.480;6.834;2023-07-29T12:18:32;93642.47;;;24.19;46.86
48035;BME280;33812;46.480;6.834;2023-07-29T12:22:34;93645.25;;;24.19;46.98
48035;BME280;33812;46.480;6.834;2023-07-29T12:26:36;93663.47;;;24.20;46.85
48035;BME280;33812;46.480;6.834;2023-07-29T12:30:41;93668.22;;;24.19;46.90
48035;BME280;33812;46.480;6.834;2023-07-29T12:34:44;93667.44;;;24.19;46.95
48035;BME280;33812;46.480;6.834;2023-07-29T12:38:46;93673.78;;;24.19;46.64
48035;BME280;33812;46.480;6.834;2023-07-29T12:42:48;93675.78;;;24.19;46.92
48035;BME280;33812;46.480;6.834;2023-07-29T12:46:50;93679.34;;;24.19;47.02
48035;BME280;33812;46.480;6.834;2023-07-29T12:50:54;93681.66;;;24.21;47.11
48035;BME280;33812;46.480;6.834;2023-07-29T12:54:55;93671.00;;;24.19;47.15
48035;BME280;33812;46.480;6.834;2023-07-29T12:58:57;93667.00;;;24.20;46.82
48035;BME280;33812;46.480;6.834;2023-07-29T13:02:59;93675.31;;;24.20;47.05
48035;BME280;33812;46.480;6.834;2023-07-29T13:07:02;93660.69;;;24.20;46.59
48035;BME280;33812;46.480;6.834;2023-07-29T13:11:04;93640.00;;;24.21;46.83
48035;BME280;33812;46.480;6.834;2023-07-29T13:15:07;93648.34;;;24.21;47.11
48035;BME280;33812;46.480;6.834;2023-07-29T13:19:08;93662.69;;;24.19;47.06
48035;BME280;33812;46.480;6.834;2023-07-29T13:23:11;93667.00;;;24.20;47.02
48035;BME280;33812;46.480;6.834;2023-07-29T13:27:13;93684.44;;;24.21;46.72
48035;BME280;33812;46.480;6.834;2023-07-29T13:31:15;93678.88;;;24.21;47.19
48035;BME280;33812;46.480;6.834;2023-07-29T13:35:17;93678.88;;;24.21;47.12
48035;BME280;33812;46.480;6.834;2023-07-29T13:39:20;93668.56;;;24.21;46.80
48035;BME280;33812;46.480;6.834;2023-07-29T13:43:22;93670.53;;;24.21;46.87
48035;BME280;33812;46.480;6.834;2023-07-29T13:47:23;93667.00;;;24.20;46.92
48035;BME280;33812;46.480;6.834;2023-07-29T13:51:25;93662.22;;;24.21;47.08
48035;BME280;33812;46.480;6.834;2023-07-29T13:55:28;93647.56;;;24.20;46.76
48035;BME280;33812;46.480;6.834;2023-07-29T13:59:30;93636.00;;;24.22;47.26
48035;BME280;33812;46.480;6.834;2023-07-29T14:03:31;93635.22;;;24.21;47.16
48035;BME280;33812;46.480;6.834;2023-07-29T14:07:33;93627.69;;;24.22;46.81
48035;BME280;33812;46.480;6.834;2023-07-29T14:11:36;93624.13;;;24.21;47.32
48035;BME280;33812;46.480;6.834;2023-07-29T14:15:38;93621.34;;;24.21;46.86
48035;BME280;33812;46.480;6.834;2023-07-29T14:19:40;93623.34;;;24.21;47.10
48035;BME280;33812;46.480;6.834;2023-07-29T14:23:42;93618.56;;;24.21;47.29
48035;BME280;33812;46.480;6.834;2023-07-29T14:27:45;93624.91;;;24.22;47.00
48035;BME280;33812;46.480;6.834;2023-07-29T14:31:46;93625.66;;;24.22;46.93
48035;BME280;33812;46.480;6.834;2023-07-29T14:35:48;93627.69;;;24.22;47.34
48035;BME280;33812;46.480;6.834;2023-07-29T14:39:50;93632.44;;;24.21;47.36
48035;BME280;33812;46.480;6.834;2023-07-29T14:43:53;93627.69;;;24.22;47.40
48035;BME280;33812;46.480;6.834;2023-07-29T14:47:55;93631.69;;;24.21;46.94
48035;BME280;33812;46.480;6.834;2023-07-29T14:51:56;93644.34;;;24.22;47.42
48035;BME280;33812;46.480;6.834;2023-07-29T14:55:58;93677.66;;;24.22;46.95
48035;BME280;33812;46.480;6.834;2023-07-29T15:00:02;93666.56;;;24.22;47.31
48035;BME280;33812;46.480;6.834;2023-07-29T15:04:04;93619.34;;;24.22;47.01
48035;BME280;33812;46.480;6.834;2023-07-29T15:08:05;93620.09;;;24.22;47.39
48035;BME280;33812;46.480;6.834;2023-07-29T15:12:08;93622.13;;;24.22;47.19
48035;BME280;33812;46.480;6.834;2023-07-29T15:16:11;93636.00;;;24.22;47.01
48035;BME280;33812;46.480;6.834;2023-07-29T15:20:13;93633.97;;;24.22;46.95
48035;BME280;33812;46.480;6.834;2023-07-29T15:24:14;93630.47;;;24.22;47.23
48035;BME280;33812;46.480;6.834;2023-07-29T15:28:16;93591.59;;;24.22;47.33
48035;BME280;33812;46.480;6.834;2023-07-29T15:32:19;93602.69;;;24.22;47.00
48035;BME280;33812;46.480;6.834;2023-07-29T15:36:21;93613.00;;;24.21;47.33
48035;BME280;33812;46.480;6.834;2023-07-29T15:40:23;93620.88;;;24.23;46.86
48035;BME280;33812;46.480;6.834;2023-07-29T15:44:24;93602.69;;;24.22;47.44
48035;BME280;33812;46.480;6.834;2023-07-29T15:48:27;93592.34;;;24.22;47.22
48035;BME280;33812;46.480;6.834;2023-07-29T15:52:29;93585.25;;;24.21;46.92
48035;BME280;33812;46.480;6.834;2023-07-29T15:56:31;93587.56;;;24.23;47.05
48035;BME280;33812;46.480;6.834;2023-07-29T16:00:36;93591.59;;;24.22;46.87
48035;BME280;33812;46.480;6.834;2023-07-29T16:04:39;93581.22;;;24.22;46.97
48035;BME280;33812;46.480;6.834;2023-07-29T16:08:41;93578.91;;;24.21;47.10
48035;BME280;33812;46.480;6.834;2023-07-29T16:12:42;93586.03;;;24.22;47.32
48035;BME280;33812;46.480;6.834;2023-07-29T16:16:44;93594.34;;;24.22;46.97
48035;BME280;33812;46.480;6.834;2023-07-29T16:20:47;93576.91;;;24.21;47.38
48035;BME280;33812;46.480;6.834;2023-07-29T16:24:50;93583.25;;;24.22;47.11
48035;BME280;33812;46.480;6.834;2023-07-29T16:28:52;93589.56;;;24.22;47.38
48035;BME280;33812;46.480;6.834;2023-07-29T16:32:54;93584.00;;;24.22;47.48
48035;BME280;33812;46.480;6.834;2023-07-29T16:36:57;93573.69;;;24.23;47.21
48035;BME280;33812;46.480;6.834;2023-07-29T16:40:59;93576.44;;;24.23;47.14
48035;BME280;33812;46.480;6.834;2023-07-29T16:45:00;93570.13;;;24.22;47.03
48035;BME280;33812;46.480;6.834;2023-07-29T16:49:02;93557.00;;;24.23;47.01
48035;BME280;33812;46.480;6.834;2023-07-29T16:53:05;93554.25;;;24.23;47.22
48035;BME280;33812;46.480;6.834;2023-07-29T16:57:07;93557.00;;;24.23;47.51
48035;BME280;33812;46.480;6.834;2023-07-29T17:01:09;93554.25;;;24.23;47.07
48035;BME280;33812;46.480;6.834;2023-07-29T17:05:10;93548.69;;;24.23;47.07
48035;BME280;33812;46.480;6.834;2023-07-29T17:09:14;93542.34;;;24.22;47.11
48035;BME280;33812;46.480;6.834;2023-07-29T17:13:15;93536.06;;;24.22;47.00
48035;BME280;33812;46.480;6.834;2023-07-29T17:17:17;93539.56;;;24.22;47.54
48035;BME280;33812;46.480;6.834;2023-07-29T17:21:19;93538.34;;;24.23;47.51
48035;BME280;33812;46.480;6.834;2023-07-29T17:25:22;93542.34;;;24.22;47.45
48035;BME280;33812;46.480;6.834;2023-07-29T17:29:24;93557.00;;;24.23;47.61
48035;BME280;33812;46.480;6.834;2023-07-29T17:33:26;93537.56;;;24.23;47.15
48035;BME280;33812;46.480;6.834;2023-07-29T17:37:28;93526.47;;;24.23;47.57
48035;BME280;33812;46.480;6.834;2023-07-29T17:41:31;93523.22;;;24.24;47.42
48035;BME280;33812;46.480;6.834;2023-07-29T17:45:33;93523.69;;;24.23;47.09
48035;BME280;33812;46.480;6.834;2023-07-29T17:49:35;93541.13;;;24.23;47.31
48035;BME280;33812;46.480;6.834;2023-07-29T17:53:37;93539.56;;;24.22;47.63
48035;BME280;33812;46.480;6.834;2023-07-29T17:57:40;93548.69;;;24.23;47.09
48035;BME280;33812;46.480;6.834;2023-07-29T18:01:42;93536.06;;;24.22;47.16
48035;BME280;33812;46.480;6.834;2023-07-29T18:05:45;93547.91;;;24.22;47.33
48035;BME280;33812;46.480;6.834;2023-07-29T18:09:47;93559.00;;;24.22;47.23
48035;BME280;33812;46.480;6.834;2023-07-29T18:13:50;93568.13;;;24.23;47.16
48035;BME280;33812;46.480;6.834;2023-07-29T18:17:52;93573.69;;;24.23;47.16
48035;BME280;33812;46.480;6.834;2023-07-29T18:21:54;93593.13;;;24.23;47.61
48035;BME280;33812;46.480;6.834;2023-07-29T18:25:55;93588.81;;;24.22;47.33
48035;BME280;33812;46.480;6.834;2023-07-29T18:29:59;93570.13;;;24.22;47.63
48035;BME280;33812;46.480;6.834;2023-07-29T18:34:00;93581.22;;;24.22;47.37
48035;BME280;33812;46.480;6.834;2023-07-29T18:38:02;93585.25;;;24.21;47.55
48035;BME280;33812;46.480;6.834;2023-07-29T18:42:04;93589.56;;;24.22;47.60
48035;BME280;33812;46.480;6.834;2023-07-29T18:46:08;93590.81;;;24.21;47.12
48035;BME280;33812;46.480;6.834;2023-07-29T18:50:09;93565.81;;;24.21;47.24
48035;BME280;33812;46.480;6.834;2023-07-29T18:54:11;93569.38;;;24.22;47.34
48035;BME280;33812;46.480;6.834;2023-07-29T18:58:13;93573.38;;;24.21;47.55
48035;BME280;33812;46.480;6.834;2023-07-29T19:02:16;93580.47;;;24.22;47.60
48035;BME280;33812;46.480;6.834;2023-07-29T19:06:18;93588.03;;;24.21;47.19
48035;BME280;33812;46.480;6.834;2023-07-29T19:10:20;93602.69;;;24.22;47.59
48035;BME280;33812;46.480;6.834;2023-07-29T19:14:22;93633.22;;;24.22;47.20
48035;BME280;33812;46.480;6.834;2023-07-29T19:18:25;93649.13;;;24.21;47.42
48035;BME280;33812;46.480;6.834;2023-07-29T19:22:28;93669.34;;;24.22;47.31
48035;BME280;33812;46.480;6.834;2023-07-29T19:26:30;93686.00;;;24.22;47.09
48035;BME280;33812;46.480;6.834;2023-07-29T19:30:32;93683.22;;;24.22;47.17
48035;BME280;33812;46.480;6.834;2023-07-29T19:34:35;93686.00;;;24.22;47.12
48035;BME280;33812;46.480;6.834;2023-07-29T19:38:37;93686.44;;;24.20;47.20
48035;BME280;33812;46.480;6.834;2023-07-29T19:42:39;93687.22;;;24.21;47.59
48035;BME280;33812;46.480;6.834;2023-07-29T19:46:40;93679.66;;;24.21;47.22
48035;BME280;33812;46.480;6.834;2023-07-29T19:50:44;93687.22;;;24.21;47.18
48035;BME280;33812;46.480;6.834;2023-07-29T19:54:46;93693.53;;;24.21;47.18
48035;BME280;33812;46.480;6.834;2023-07-29T19:58:48;93692.75;;;24.21;47.63
48035;BME280;33812;46.480;6.834;2023-07-29T20:02:50;93703.88;;;24.21;47.54
48035;BME280;33812;46.480;6.834;2023-07-29T20:06:53;93699.09;;;24.21;47.11
48035;BME280;33812;46.480;6.834;2023-07-29T20:10:57;93712.19;;;24.21;47.23
48035;BME280;33812;46.480;6.834;2023-07-29T20:14:59;93710.66;;;24.20;47.54
48035;BME280;33812;46.480;6.834;2023-07-29T20:19:03;93724.09;;;24.21;47.34
48035;BME280;33812;46.480;6.834;2023-07-29T20:23:08;93725.31;;;24.20;47.26
48035;BME280;33812;46.480;6.834;2023-07-29T20:27:10;93722.53;;;24.20;47.26
48035;BME280;33812;46.480;6.834;2023-07-29T20:31:12;93730.84;;;24.20;47.13
48035;BME280;33812;46.480;6.834;2023-07-29T20:35:14;93719.00;;;24.20;47.39
48035;BME280;33812;46.480;6.834;2023-07-29T20:39:17;93718.22;;;24.19;47.22
48035;BME280;33812;46.480;6.834;2023-07-29T20:43:19;93716.97;;;24.20;47.27
48035;BME280;33812;46.480;6.834;2023-07-29T20:47:21;93716.22;;;24.20;47.31
48035;BME280;33812;46.480;6.834;2023-07-29T20:51:23;93713.44;;;24.20;47.69
48035;BME280;33812;46.480;6.834;2023-07-29T20:55:26;93716.22;;;24.20;47.63
48035;BME280;33812;46.480;6.834;2023-07-29T20:59:28;93710.66;;;24.20;47.24
48035;BME280;33812;46.480;6.834;2023-07-29T21:03:30;93709.88;;;24.19;47.61
48035;BME280;33812;46.480;6.834;2023-07-29T21:07:31;93714.66;;;24.19;47.17
48035;BME280;33812;46.480;6.834;2023-07-29T21:11:35;93712.66;;;24.19;47.53
48035;BME280;33812;46.480;6.834;2023-07-29T21:15:36;93711.88;;;24.19;47.08
48035;BME280;33812;46.480;6.834;2023-07-29T21:19:38;93715.44;;;24.19;47.25
48035;BME280;33812;46.480;6.834;2023-07-29T21:23:40;93714.66;;;24.19;47.15
48035;BME280;33812;46.480;6.834;2023-07-29T21:27:43;93718.69;;;24.18;47.06